createdAt,value
2023-03-19T00:01:17.514Z,151.80
2023-03-19T00:03:46.425Z,153.90
2023-03-19T00:06:15.022Z,154.00
2023-03-19T00:08:48.909Z,153.50
2023-03-19T00:11:17.466Z,137.90
2023-03-19T00:13:45.486Z,141.90
2023-03-19T00:16:16.320Z,138.50
2023-03-19T00:18:44.597Z,126.40
2023-03-19T00:21:12.767Z,116.00
2023-03-19T00:23:41.289Z,112.30
2023-03-19T00:26:09.840Z,129.10
2023-03-19T00:28:41.333Z,131.10
2023-03-19T00:31:14.903Z,118.50
2023-03-19T00:33:43.060Z,128.70
2023-03-19T00:36:11.912Z,128.90
2023-03-19T00:38:43.862Z,132.40
2023-03-19T00:41:12.919Z,129.20
2023-03-19T00:43:41.378Z,135.40
2023-03-19T00:46:09.586Z,125.40
2023-03-19T00:48:38.005Z,127.50
2023-03-19T00:51:08.226Z,126.30
2023-03-19T00:53:43.817Z,125.70
2023-03-19T00:56:12.949Z,131.60
2023-03-19T00:58:42.373Z,145.90
2023-03-19T01:01:13.135Z,128.50
2023-03-19T01:03:41.933Z,131.10
2023-03-19T01:06:10.351Z,132.60
2023-03-19T01:08:41.387Z,144.30
2023-03-19T01:11:12.438Z,131.80
2023-03-19T01:13:41.503Z,125.40
2023-03-19T01:16:10.039Z,124.20
2023-03-19T01:18:38.263Z,127.90
2023-03-19T01:21:07.744Z,137.60
2023-03-19T01:23:40.188Z,130.60
2023-03-19T01:26:08.461Z,130.30
2023-03-19T01:28:37.617Z,130.20
2023-03-19T01:31:07.140Z,125.40
2023-03-19T01:33:35.357Z,108.20
2023-03-19T01:36:10.801Z,108.70
2023-03-19T01:38:50.701Z,101.50
2023-03-19T01:41:21.751Z,99.10
2023-03-19T01:43:51.197Z,90.80
2023-03-19T01:46:38.223Z,83.50
2023-03-19T01:49:34.136Z,80.80
2023-03-19T01:52:20.790Z,83.90
2023-03-19T01:55:11.286Z,93.30
2023-03-19T01:57:51.226Z,93.00
2023-03-19T02:00:38.320Z,106.00
2023-03-19T02:03:07.406Z,103.70
2023-03-19T02:05:45.655Z,97.70
2023-03-19T02:08:19.895Z,85.00
2023-03-19T02:10:49.338Z,82.70
2023-03-19T02:13:17.518Z,78.50
2023-03-19T02:15:45.772Z,85.20
2023-03-19T02:18:14.308Z,76.50
2023-03-19T02:21:03.928Z,75.90
2023-03-19T02:24:12.678Z,80.80
2023-03-19T02:26:56.762Z,81.00
2023-03-19T02:29:25.744Z,87.80
2023-03-19T02:31:54.655Z,85.30
2023-03-19T02:34:23.220Z,92.80
2023-03-19T02:36:54.630Z,88.10
2023-03-19T02:39:27.250Z,92.80
2023-03-19T02:41:55.476Z,77.10
2023-03-19T02:44:26.449Z,86.50
2023-03-19T02:47:02.398Z,85.80
2023-03-19T02:49:31.373Z,95.20
2023-03-19T02:51:59.516Z,95.10
2023-03-19T02:54:27.618Z,106.60
2023-03-19T02:56:55.876Z,104.70
2023-03-19T02:59:25.154Z,106.50
2023-03-19T03:01:53.676Z,92.00
2023-03-19T03:04:22.093Z,92.70
2023-03-19T03:06:56.775Z,93.60
2023-03-19T03:09:24.941Z,91.30
2023-03-19T03:11:53.217Z,80.00
2023-03-19T03:14:24.794Z,91.20
2023-03-19T03:16:53.949Z,90.50
2023-03-19T03:19:22.054Z,86.20
2023-03-19T03:21:51.155Z,87.70
2023-03-19T03:24:19.468Z,89.80
2023-03-19T03:26:47.506Z,90.50
2023-03-19T03:29:16.841Z,92.50
2023-03-19T03:31:45.191Z,81.70
2023-03-19T03:34:17.163Z,84.40
2023-03-19T03:36:47.082Z,86.70
2023-03-19T03:39:15.209Z,90.60
2023-03-19T03:41:43.361Z,92.20
2023-03-19T03:44:12.475Z,94.30
2023-03-19T03:46:43.549Z,109.70
2023-03-19T03:49:12.512Z,107.00
2023-03-19T03:51:41.590Z,100.20
2023-03-19T03:54:10.234Z,95.70
2023-03-19T03:56:38.707Z,106.10
2023-03-19T03:59:07.663Z,97.30
2023-03-19T04:01:36.335Z,111.30
2023-03-19T04:04:04.964Z,104.20
2023-03-19T04:06:33.116Z,100.80
2023-03-19T04:09:12.101Z,118.00
2023-03-19T04:11:41.237Z,104.80
2023-03-19T04:14:10.385Z,117.70
2023-03-19T04:16:39.369Z,99.50
2023-03-19T04:19:07.832Z,102.30
2023-03-19T04:21:37.765Z,116.30
2023-03-19T04:24:06.851Z,101.20
2023-03-19T04:26:34.997Z,94.00
2023-03-19T04:29:05.261Z,90.70
2023-03-19T04:31:34.524Z,91.10
2023-03-19T04:34:02.655Z,97.10
2023-03-19T04:36:31.882Z,102.40
2023-03-19T04:39:00.224Z,99.80
2023-03-19T04:41:36.114Z,93.80
2023-03-19T04:44:32.199Z,94.50
2023-03-19T04:47:01.927Z,88.10
2023-03-19T04:49:32.837Z,79.90
2023-03-19T04:52:00.914Z,80.60
2023-03-19T04:54:29.721Z,75.70
2023-03-19T04:56:58.202Z,76.50
2023-03-19T04:59:30.502Z,73.90
2023-03-19T05:01:58.592Z,73.50
2023-03-19T05:04:27.413Z,71.30
2023-03-19T05:09:27.205Z,72.60
2023-03-19T05:11:56.638Z,69.70
2023-03-19T05:14:26.104Z,69.40
2023-03-19T05:17:03.566Z,67.10
2023-03-19T05:19:40.752Z,57.90
2023-03-19T05:22:10.283Z,61.10
2023-03-19T05:24:39.400Z,56.90
2023-03-19T05:27:10.794Z,57.60
2023-03-19T05:29:45.286Z,61.80
2023-03-19T05:32:27.780Z,58.70
2023-03-19T05:34:56.539Z,62.80
2023-03-19T05:37:24.856Z,50.50
2023-03-19T05:39:56.062Z,56.50
2023-03-19T05:42:24.289Z,53.60
2023-03-19T05:44:55.637Z,49.70
2023-03-19T05:47:28.138Z,54.60
2023-03-19T05:49:57.874Z,54.60
2023-03-19T05:52:26.356Z,54.60
2023-03-19T05:54:56.037Z,61.00
2023-03-19T05:57:40.507Z,73.50
2023-03-19T06:00:27.070Z,80.70
2023-03-19T06:02:55.299Z,86.30
2023-03-19T06:05:34.487Z,81.80
2023-03-19T06:08:12.321Z,70.30
2023-03-19T06:11:15.364Z,73.80
2023-03-19T06:13:46.307Z,60.10
2023-03-19T06:16:18.295Z,59.70
2023-03-19T06:18:53.445Z,56.70
2023-03-19T06:21:29.666Z,56.90
2023-03-19T06:23:59.977Z,49.50
2023-03-19T06:26:34.515Z,64.10
2023-03-19T06:29:06.247Z,62.30
2023-03-19T06:31:34.567Z,57.50
2023-03-19T06:34:09.058Z,50.80
2023-03-19T06:36:41.995Z,52.00
2023-03-19T06:39:16.779Z,46.90
2023-03-19T06:41:46.453Z,43.80
2023-03-19T06:44:19.838Z,41.10
2023-03-19T06:46:48.258Z,39.00
2023-03-19T06:49:16.377Z,45.20
2023-03-19T06:51:44.629Z,36.70
2023-03-19T06:54:12.687Z,39.40
2023-03-19T06:56:40.831Z,41.50
2023-03-19T06:59:16.100Z,26.60
2023-03-19T07:01:44.327Z,30.00
2023-03-19T07:04:14.163Z,25.60
2023-03-19T07:06:45.715Z,21.00
2023-03-19T07:09:14.483Z,17.10
2023-03-19T07:11:42.607Z,17.50
2023-03-19T07:14:13.109Z,20.00
2023-03-19T07:16:41.246Z,21.40
2023-03-19T07:19:09.334Z,18.60
2023-03-19T07:21:38.798Z,18.00
2023-03-19T07:24:07.013Z,16.80
2023-03-19T07:26:36.023Z,16.50
2023-03-19T07:29:04.847Z,22.20
2023-03-19T07:31:32.917Z,15.50
2023-03-19T07:34:06.638Z,16.00
2023-03-19T07:36:35.312Z,21.80
2023-03-19T07:39:03.922Z,16.80
2023-03-19T07:41:32.354Z,14.80
2023-03-19T07:44:00.879Z,13.50
2023-03-19T07:46:34.115Z,18.50
2023-03-19T07:49:02.187Z,16.70
2023-03-19T07:51:30.294Z,20.60
2023-03-19T07:53:58.402Z,17.00
2023-03-19T07:56:26.825Z,15.60
2023-03-19T07:58:56.024Z,17.30
2023-03-19T08:01:24.575Z,14.90
2023-03-19T08:03:54.240Z,16.20
2023-03-19T08:06:22.306Z,15.20
2023-03-19T08:08:53.070Z,19.60
2023-03-19T08:11:21.257Z,19.60
2023-03-19T08:13:49.503Z,17.20
2023-03-19T08:16:17.898Z,27.10
2023-03-19T08:18:46.573Z,16.60
2023-03-19T08:21:15.732Z,15.40
2023-03-19T08:23:43.936Z,15.50
2023-03-19T08:26:12.307Z,15.50
2023-03-19T08:28:40.729Z,12.30
2023-03-19T08:31:13.849Z,15.70
2023-03-19T08:33:42.510Z,14.90
2023-03-19T08:36:12.677Z,17.60
2023-03-19T08:38:41.807Z,16.40
2023-03-19T08:41:12.510Z,14.70
2023-03-19T08:43:41.082Z,15.20
2023-03-19T08:46:09.270Z,16.00
2023-03-19T08:48:39.661Z,14.20
2023-03-19T08:51:09.967Z,18.00
2023-03-19T08:53:38.866Z,18.40
2023-03-19T08:56:08.029Z,15.80
2023-03-19T08:58:42.890Z,16.50
2023-03-19T09:01:12.967Z,18.00
2023-03-19T09:03:42.708Z,21.10
2023-03-19T09:06:11.709Z,15.90
2023-03-19T09:08:59.552Z,15.20
2023-03-19T09:11:27.832Z,18.20
2023-03-19T09:13:56.804Z,16.00
2023-03-19T09:16:31.192Z,15.20
2023-03-19T09:19:02.690Z,14.80
2023-03-19T09:21:31.693Z,14.00
2023-03-19T09:23:59.779Z,14.90
2023-03-19T09:26:27.893Z,13.70
2023-03-19T09:28:56.418Z,16.50
2023-03-19T09:31:29.454Z,14.30
2023-03-19T09:33:57.749Z,14.60
2023-03-19T09:36:26.653Z,14.00
2023-03-19T09:38:55.043Z,13.00
2023-03-19T09:42:03.917Z,18.30
2023-03-19T09:44:33.175Z,12.90
2023-03-19T09:47:25.930Z,18.00
2023-03-19T09:49:58.020Z,32.30
2023-03-19T09:52:41.546Z,27.90
2023-03-19T09:55:17.705Z,9.90
2023-03-19T09:57:46.436Z,11.30
2023-03-19T10:00:32.849Z,11.90
2023-03-19T10:03:32.722Z,11.60
2023-03-19T10:06:07.740Z,11.30
2023-03-19T10:08:43.128Z,11.50
2023-03-19T10:11:50.511Z,11.40
2023-03-19T10:14:43.052Z,12.40
2023-03-19T10:17:27.520Z,10.00
2023-03-19T10:19:58.180Z,9.90
2023-03-19T10:22:36.142Z,10.60
2023-03-19T10:25:05.752Z,10.40
2023-03-19T10:27:34.116Z,12.60
2023-03-19T10:30:03.042Z,9.70
2023-03-19T10:32:44.173Z,8.00
2023-03-19T10:35:20.656Z,9.40
2023-03-19T10:37:50.649Z,9.90
2023-03-19T10:40:27.035Z,9.00
2023-03-19T10:43:12.057Z,10.10
2023-03-19T10:45:42.692Z,12.00
2023-03-19T10:48:16.100Z,12.50
2023-03-19T10:50:47.875Z,11.30
2023-03-19T10:53:16.500Z,9.40
2023-03-19T11:59:47.355Z,15.40
2023-03-19T12:08:25.966Z,8.90
2023-03-19T12:11:14.333Z,10.60
2023-03-19T12:13:57.294Z,9.40
2023-03-19T12:16:59.001Z,8.90
2023-03-19T12:19:27.207Z,13.50
2023-03-19T12:22:27.665Z,13.10
2023-03-19T12:25:17.599Z,11.70
2023-03-19T12:28:03.366Z,11.30
2023-03-19T12:30:54.426Z,11.70
2023-03-19T12:33:35.441Z,10.70
2023-03-19T12:36:03.805Z,11.30
2023-03-19T12:38:34.658Z,9.50
2023-03-19T12:41:04.864Z,11.10
2023-03-19T12:43:36.469Z,10.20
2023-03-19T12:46:09.647Z,15.80
2023-03-19T12:48:50.644Z,9.80
2023-03-19T12:51:20.657Z,12.80
2023-03-19T12:53:57.403Z,11.40
2023-03-19T12:56:37.223Z,11.50
2023-03-19T12:59:09.147Z,17.20
2023-03-19T13:01:45.646Z,13.80
2023-03-19T13:04:28.245Z,11.30
2023-03-19T13:07:07.703Z,14.70
2023-03-19T13:09:39.390Z,13.80
2023-03-19T13:14:51.162Z,13.10
2023-03-19T13:17:21.648Z,49.90
2023-03-19T13:19:54.151Z,13.00
2023-03-19T13:22:24.308Z,14.90
2023-03-19T13:24:52.436Z,18.10
2023-03-19T13:27:30.146Z,14.40
2023-03-19T13:30:17.953Z,18.90
2023-03-19T13:32:54.724Z,12.50
2023-03-19T13:35:34.955Z,10.80
2023-03-19T13:38:27.088Z,13.20
2023-03-19T13:40:56.698Z,12.10
2023-03-19T13:43:30.360Z,12.60
2023-03-19T13:46:12.245Z,11.90
2023-03-19T13:48:47.761Z,11.10
2023-03-19T13:51:23.700Z,12.60
2023-03-19T13:56:29.535Z,16.30
2023-03-19T13:59:17.029Z,12.20
2023-03-19T14:01:45.256Z,10.80
2023-03-19T14:04:32.432Z,12.30
2023-03-19T14:07:27.236Z,34.60
2023-03-19T14:10:02.422Z,15.50
2023-03-19T14:12:36.708Z,15.40
2023-03-19T14:15:17.916Z,11.50
2023-03-19T14:18:01.689Z,10.60
2023-03-19T14:20:39.801Z,22.10
2023-03-19T14:23:12.289Z,11.70
2023-03-19T14:26:00.179Z,12.30
2023-03-19T14:29:07.426Z,11.90
2023-03-19T14:32:01.583Z,11.20
2023-03-19T14:34:34.540Z,11.90
2023-03-19T14:37:28.824Z,11.30
2023-03-19T14:40:11.461Z,10.20
2023-03-19T14:42:52.410Z,10.20
2023-03-19T14:45:36.108Z,18.30
2023-03-19T14:48:24.391Z,12.40
2023-03-19T14:51:11.617Z,9.40
2023-03-19T14:53:50.574Z,14.30
2023-03-19T14:56:41.939Z,21.10
2023-03-19T14:59:10.409Z,15.40
2023-03-19T15:01:41.215Z,10.70
2023-03-19T15:04:11.477Z,9.50
2023-03-19T15:06:48.814Z,13.10
2023-03-19T15:09:37.771Z,10.50
2023-03-19T15:12:44.329Z,11.00
2023-03-19T15:15:31.622Z,15.50
2023-03-19T15:18:20.807Z,15.30
2023-03-19T15:20:55.551Z,16.70
2023-03-19T15:23:28.466Z,16.20
2023-03-19T15:26:01.454Z,12.60
2023-03-19T15:28:45.975Z,18.90
2023-03-19T15:31:31.066Z,16.10
2023-03-19T15:34:02.465Z,15.90
2023-03-19T15:36:32.082Z,13.90
2023-03-19T15:39:04.874Z,13.00
2023-03-19T15:41:34.767Z,15.60
2023-03-19T15:44:05.281Z,14.50
2023-03-19T15:46:34.574Z,18.30
2023-03-19T15:49:05.347Z,34.70
2023-03-19T15:51:36.316Z,29.10
2023-03-19T15:54:04.477Z,20.90
2023-03-19T15:56:35.757Z,25.70
2023-03-19T15:59:03.964Z,22.00
2023-03-19T16:01:32.408Z,17.00
2023-03-19T16:04:08.952Z,12.50
2023-03-19T16:06:39.538Z,14.90
2023-03-19T16:09:30.752Z,14.60
2023-03-19T16:11:58.993Z,14.40
2023-03-19T16:14:35.827Z,17.10
2023-03-19T16:17:13.515Z,16.80
2023-03-19T16:19:52.249Z,21.10
2023-03-19T16:22:21.944Z,19.80
2023-03-19T16:24:50.304Z,16.20
2023-03-19T16:27:38.871Z,13.50
2023-03-19T16:30:16.633Z,12.80
2023-03-19T16:32:45.448Z,14.20
2023-03-19T16:35:15.552Z,14.70
2023-03-19T16:37:55.158Z,15.30
2023-03-19T16:40:26.582Z,18.10
2023-03-19T16:42:56.352Z,18.70
2023-03-19T16:45:31.473Z,15.60
2023-03-19T16:48:03.316Z,20.90
2023-03-19T16:50:37.006Z,21.50
2023-03-19T16:53:12.361Z,23.30
2023-03-19T16:55:42.165Z,19.10
2023-03-19T16:58:16.939Z,19.00
2023-03-19T17:00:45.256Z,18.90
2023-03-19T17:03:15.384Z,23.00
2023-03-19T17:05:44.154Z,29.80
2023-03-19T17:08:14.525Z,72.60
2023-03-19T17:10:49.393Z,101.90
2023-03-19T17:13:20.717Z,99.00
2023-03-19T17:15:50.309Z,95.60
2023-03-19T17:18:23.573Z,99.60
2023-03-19T17:20:57.791Z,87.00
2023-03-19T17:23:27.189Z,95.80
2023-03-19T17:25:55.724Z,100.10
2023-03-19T17:28:24.100Z,78.00
2023-03-19T17:30:53.754Z,82.00
2023-03-19T17:33:28.529Z,74.40
2023-03-19T17:35:57.906Z,96.10
2023-03-19T17:38:30.329Z,96.50
2023-03-19T17:41:01.127Z,113.80
2023-03-19T17:43:31.009Z,95.10
2023-03-19T17:45:59.179Z,83.10
2023-03-19T17:48:31.126Z,96.70
2023-03-19T17:51:01.485Z,87.30
2023-03-19T17:53:30.127Z,58.60
2023-03-19T17:55:58.283Z,34.70
2023-03-19T17:58:26.517Z,34.80
2023-03-19T18:00:54.818Z,44.00
2023-03-19T18:03:23.974Z,48.40
2023-03-19T18:05:52.275Z,31.30
2023-03-19T18:08:23.942Z,34.40
2023-03-19T18:10:52.729Z,39.90
2023-03-19T18:13:21.430Z,41.60
2023-03-19T18:15:57.058Z,45.50
2023-03-19T18:18:26.597Z,51.50
2023-03-19T18:20:54.628Z,57.40
2023-03-19T18:23:26.156Z,53.50
2023-03-19T18:25:54.270Z,56.90
2023-03-19T18:28:25.050Z,58.40
2023-03-19T18:30:55.120Z,67.20
2023-03-19T18:33:26.459Z,88.30
2023-03-19T18:35:57.072Z,96.80
2023-03-19T18:38:25.956Z,88.60
2023-03-19T18:40:54.881Z,91.80
2023-03-19T18:43:24.857Z,84.90
2023-03-19T18:45:53.312Z,81.20
2023-03-19T18:48:28.430Z,76.90
2023-03-19T18:50:59.947Z,80.70
2023-03-19T18:53:30.342Z,82.60
2023-03-19T18:55:58.918Z,80.00
2023-03-19T18:58:28.404Z,73.00
2023-03-19T19:01:01.738Z,73.10
2023-03-19T19:03:35.052Z,66.50
2023-03-19T19:06:13.650Z,68.70
2023-03-19T19:08:42.436Z,66.90
2023-03-19T19:11:13.034Z,73.70
2023-03-19T19:13:55.451Z,78.50
2023-03-19T19:16:31.915Z,74.30
2023-03-19T19:19:00.792Z,85.30
2023-03-19T19:21:29.011Z,98.50
2023-03-19T19:23:58.785Z,94.80
2023-03-19T19:26:28.689Z,105.50
2023-03-19T19:28:57.621Z,104.20
2023-03-19T19:31:29.520Z,86.20
2023-03-19T19:33:58.850Z,94.10
2023-03-19T19:36:33.088Z,91.00
2023-03-19T19:39:01.295Z,91.90
2023-03-19T19:41:29.656Z,89.30
2023-03-19T19:44:03.125Z,89.80
2023-03-19T19:46:31.824Z,94.10
2023-03-19T19:49:00.052Z,85.50
2023-03-19T19:51:29.649Z,83.90
2023-03-19T19:53:57.763Z,86.60
2023-03-19T19:56:26.693Z,85.60
2023-03-19T19:58:55.030Z,107.20
2023-03-19T20:01:27.418Z,86.70
2023-03-19T20:03:55.974Z,87.80
2023-03-19T20:06:24.408Z,83.90
2023-03-19T20:08:53.093Z,72.70
2023-03-19T20:11:22.971Z,76.70
2023-03-19T20:13:57.474Z,83.60
2023-03-19T20:16:31.714Z,82.20
2023-03-19T20:18:59.854Z,75.60
2023-03-19T20:21:30.630Z,76.00
2023-03-19T20:23:59.158Z,78.60
2023-03-19T20:26:32.147Z,74.00
2023-03-19T20:29:01.642Z,80.90
2023-03-19T20:31:30.792Z,90.50
2023-03-19T20:33:59.108Z,94.20
2023-03-19T20:36:27.971Z,96.60
2023-03-19T20:38:56.111Z,88.40
2023-03-19T20:41:27.142Z,98.60
2023-03-19T20:43:56.462Z,104.10
2023-03-19T20:46:28.855Z,102.90
2023-03-19T20:48:57.291Z,108.70
2023-03-19T20:51:27.061Z,90.50
2023-03-19T20:53:58.857Z,99.80
2023-03-19T20:56:27.961Z,91.40
2023-03-19T20:59:01.202Z,86.90
2023-03-19T21:01:29.707Z,93.60
2023-03-19T21:03:57.707Z,89.70
2023-03-19T21:06:26.010Z,89.50
2023-03-19T21:08:58.663Z,103.10
2023-03-19T21:11:45.750Z,107.00
2023-03-19T21:14:16.175Z,95.50
2023-03-19T21:16:44.253Z,94.40
2023-03-19T21:19:14.670Z,94.00
2023-03-19T21:21:44.621Z,100.90
2023-03-19T21:24:15.170Z,82.60
2023-03-19T21:26:44.669Z,88.80
2023-03-19T21:29:24.612Z,88.40
2023-03-19T21:31:58.241Z,94.10
2023-03-19T21:34:28.437Z,96.60
2023-03-19T21:36:56.508Z,95.90
2023-03-19T21:39:24.684Z,97.10
2023-03-19T21:41:53.584Z,92.80
2023-03-19T21:44:29.803Z,85.90
2023-03-19T21:46:58.211Z,88.10
2023-03-19T21:49:27.787Z,89.80
2023-03-19T21:51:57.239Z,87.40
2023-03-19T21:54:26.179Z,83.30
2023-03-19T21:56:59.114Z,87.50
2023-03-19T21:59:31.742Z,85.10
2023-03-19T22:02:00.226Z,91.00
2023-03-19T22:04:28.289Z,89.40
2023-03-19T22:06:56.566Z,92.30
2023-03-19T22:09:28.461Z,90.70
2023-03-19T22:11:59.235Z,96.40
2023-03-19T22:14:30.105Z,83.80
2023-03-19T22:16:58.208Z,79.20
2023-03-19T22:19:26.534Z,89.80
2023-03-19T22:21:55.318Z,83.50
2023-03-19T22:24:24.517Z,82.70
2023-03-19T22:26:56.580Z,81.80
2023-03-19T22:31:54.626Z,75.50
2023-03-19T22:34:24.463Z,79.00
2023-03-19T22:36:55.823Z,78.60
2023-03-19T22:39:37.038Z,79.80
2023-03-19T22:42:08.001Z,88.80
2023-03-19T22:44:39.042Z,79.70
2023-03-19T22:47:36.814Z,84.90
2023-03-19T22:50:06.002Z,84.60
2023-03-19T22:52:35.476Z,86.80
2023-03-19T22:55:07.527Z,79.30
2023-03-19T22:57:35.890Z,73.60
2023-03-19T23:00:19.962Z,75.70
2023-03-19T23:06:30.732Z,76.60
2023-03-19T23:09:06.287Z,76.30
2023-03-19T23:14:38.967Z,77.70
2023-03-19T23:17:21.135Z,92.30
2023-03-19T23:22:21.658Z,90.40
2023-03-19T23:24:58.241Z,87.20
2023-03-19T23:28:33.584Z,100.40
2023-03-19T23:31:02.940Z,91.50
2023-03-19T23:36:38.947Z,103.80
2023-03-19T23:39:07.548Z,105.60
2023-03-19T23:41:41.605Z,94.60
2023-03-19T23:44:09.785Z,93.80
2023-03-19T23:49:34.636Z,93.70
2023-03-19T23:52:16.639Z,89.30
2023-03-19T23:54:49.251Z,79.80
2023-03-19T23:57:19.472Z,81.00
